IBE0276 LEMD-LEGR
Flight info
| Callsign | IBE0276 |
|---|---|
| Flight time | 0h 47m |
| Altitude | 27000 |
| Route | VTB N867 ANZAN L27 BLN N865 VIBAS |
| Aircraft | A320/M-SDE3FGHIRWY/LB1 |
Departure
| Time | 2026-05-04 17:02 |
|---|---|
| Airport | Adolfo Suárez Madrid–Barajas Airport (LEMD) |
Arrival
| Time | 2026-05-04 17:50 |
|---|---|
| Airport | F.G.L. Airport Granada-Jaén Airport (LEGR) |
| Time | Latitude | Longitude | Altitude | Speed | Heading |
|---|---|---|---|---|---|
| 2026-05-04 16:51 | 40.49412 | -3.56869 | 1950 ft | 0 kts | 89° |
| 2026-05-04 16:56 | 40.49412 | -3.56880 | 1980 ft | 2 kts | 89° |
| 2026-05-04 16:57 | 40.49411 | -3.56901 | 1981 ft | 2 kts | 89° |
| 2026-05-04 16:57 | 40.49411 | -3.56944 | 1982 ft | 2 kts | 89° |
| 2026-05-04 16:58 | 40.49416 | -3.57005 | 1984 ft | 2 kts | 170° |
| 2026-05-04 16:58 | 40.49424 | -3.57006 | 1983 ft | 1 kts | 181° |
| 2026-05-04 16:59 | 40.49431 | -3.57006 | 1983 ft | 0 kts | 182° |
| 2026-05-04 17:00 | 40.49446 | -3.57006 | 1983 ft | 1 kts | 182° |
| 2026-05-04 17:00 | 40.49297 | -3.57116 | 1989 ft | 7 kts | 259° |
| 2026-05-04 17:01 | 40.49189 | -3.57333 | 1993 ft | 19 kts | 264° |
| 2026-05-04 17:01 | 40.49200 | -3.57406 | 1992 ft | 22 kts | 304° |
| 2026-05-04 17:02 | 40.50216 | -3.57462 | 1995 ft | 131 kts | 1° |
| 2026-05-04 17:02 | 40.52438 | -3.57362 | 2619 ft | 174 kts | 357° |
| 2026-05-04 17:03 | 40.53614 | -3.57367 | 3417 ft | 167 kts | 353° |
| 2026-05-04 17:03 | 40.54825 | -3.57426 | 3863 ft | 180 kts | 353° |
| 2026-05-04 17:03 | 40.56743 | -3.59357 | 4471 ft | 198 kts | 288° |
| 2026-05-04 17:04 | 40.58505 | -3.62501 | 5440 ft | 223 kts | 320° |
| 2026-05-04 17:04 | 40.61092 | -3.64835 | 6765 ft | 227 kts | 319° |
| 2026-05-04 17:05 | 40.62815 | -3.68246 | 7244 ft | 246 kts | 271° |
| 2026-05-04 17:05 | 40.61339 | -3.72304 | 7894 ft | 263 kts | 216° |
| 2026-05-04 17:06 | 40.57785 | -3.72902 | 8955 ft | 278 kts | 164° |
| 2026-05-04 17:06 | 40.56013 | -3.71779 | 9406 ft | 285 kts | 156° |
| 2026-05-04 17:07 | 40.52413 | -3.69614 | 10149 ft | 289 kts | 164° |
| 2026-05-04 17:07 | 40.51151 | -3.69067 | 10218 ft | 296 kts | 167° |
| 2026-05-04 17:07 | 40.48662 | -3.68181 | 10317 ft | 308 kts | 169° |
| 2026-05-04 17:07 | 40.46571 | -3.67519 | 10415 ft | 317 kts | 171° |
| 2026-05-04 17:08 | 40.44562 | -3.66911 | 10489 ft | 325 kts | 171° |
| 2026-05-04 17:08 | 40.40126 | -3.65558 | 10958 ft | 330 kts | 170° |
| 2026-05-04 17:08 | 40.37881 | -3.64863 | 11247 ft | 332 kts | 170° |
| 2026-05-04 17:09 | 40.35623 | -3.64161 | 11481 ft | 333 kts | 170° |
| 2026-05-04 17:09 | 40.33361 | -3.63458 | 11671 ft | 335 kts | 170° |
| 2026-05-04 17:09 | 40.31089 | -3.62752 | 11880 ft | 336 kts | 170° |
| 2026-05-04 17:10 | 40.26580 | -3.61350 | 12273 ft | 337 kts | 170° |
| 2026-05-04 17:10 | 40.19660 | -3.59206 | 12791 ft | 342 kts | 170° |
| 2026-05-04 17:11 | 40.17336 | -3.58487 | 13001 ft | 343 kts | 170° |
| 2026-05-04 17:11 | 40.15009 | -3.57767 | 13184 ft | 344 kts | 170° |
| 2026-05-04 17:11 | 40.10354 | -3.56326 | 13545 ft | 347 kts | 170° |
| 2026-05-04 17:12 | 40.08000 | -3.55600 | 13727 ft | 348 kts | 170° |
| 2026-05-04 17:12 | 40.03261 | -3.54137 | 14054 ft | 350 kts | 171° |
| 2026-05-04 17:13 | 39.96123 | -3.51940 | 14488 ft | 352 kts | 171° |
| 2026-05-04 17:14 | 39.88941 | -3.49732 | 14831 ft | 354 kts | 171° |
| 2026-05-04 17:14 | 39.86541 | -3.48995 | 14932 ft | 354 kts | 171° |
| 2026-05-04 17:14 | 39.81766 | -3.47532 | 15127 ft | 354 kts | 171° |
| 2026-05-04 17:15 | 39.79358 | -3.46871 | 15203 ft | 353 kts | 175° |
| 2026-05-04 17:15 | 39.74516 | -3.46732 | 15344 ft | 348 kts | 188° |
| 2026-05-04 17:16 | 39.69610 | -3.47250 | 15502 ft | 347 kts | 188° |
| 2026-05-04 17:16 | 39.62407 | -3.47973 | 15685 ft | 348 kts | 188° |
| 2026-05-04 17:17 | 39.59985 | -3.48215 | 15720 ft | 348 kts | 188° |
| 2026-05-04 17:17 | 39.52720 | -3.48941 | 15840 ft | 349 kts | 188° |
| 2026-05-04 17:18 | 39.50295 | -3.49187 | 15868 ft | 349 kts | 188° |
| 2026-05-04 17:18 | 39.45433 | -3.49678 | 15940 ft | 350 kts | 188° |
| 2026-05-04 17:19 | 39.40579 | -3.50166 | 16012 ft | 350 kts | 188° |
| 2026-05-04 17:19 | 39.35712 | -3.50653 | 16077 ft | 350 kts | 188° |
| 2026-05-04 17:20 | 39.30846 | -3.51140 | 16139 ft | 350 kts | 188° |
| 2026-05-04 17:20 | 39.26016 | -3.51624 | 16237 ft | 352 kts | 188° |
| 2026-05-04 17:20 | 39.23558 | -3.51870 | 16417 ft | 353 kts | 188° |
| 2026-05-04 17:21 | 39.18650 | -3.52359 | 17122 ft | 355 kts | 188° |
| 2026-05-04 17:21 | 39.13686 | -3.52853 | 18269 ft | 360 kts | 189° |
| 2026-05-04 17:22 | 39.11177 | -3.53103 | 18893 ft | 363 kts | 189° |
| 2026-05-04 17:22 | 39.08675 | -3.53353 | 19555 ft | 367 kts | 189° |
| 2026-05-04 17:23 | 39.00918 | -3.54125 | 21555 ft | 378 kts | 189° |
| 2026-05-04 17:23 | 38.98277 | -3.54387 | 22188 ft | 383 kts | 189° |
| 2026-05-04 17:23 | 38.92906 | -3.54916 | 23474 ft | 391 kts | 189° |
| 2026-05-04 17:24 | 38.90182 | -3.55184 | 24021 ft | 394 kts | 189° |
| 2026-05-04 17:24 | 38.81890 | -3.55994 | 25638 ft | 403 kts | 190° |
| 2026-05-04 17:25 | 38.79092 | -3.56268 | 26142 ft | 406 kts | 190° |
| 2026-05-04 17:25 | 38.73411 | -3.56823 | 26915 ft | 411 kts | 190° |
| 2026-05-04 17:26 | 38.67733 | -3.57375 | 26967 ft | 411 kts | 190° |
| 2026-05-04 17:26 | 38.59153 | -3.58210 | 27021 ft | 414 kts | 191° |
| 2026-05-04 17:27 | 38.53393 | -3.58771 | 26968 ft | 416 kts | 191° |
| 2026-05-04 17:27 | 38.47608 | -3.59331 | 26968 ft | 416 kts | 191° |
| 2026-05-04 17:28 | 38.41830 | -3.59890 | 26965 ft | 416 kts | 191° |
| 2026-05-04 17:29 | 38.33180 | -3.60728 | 26962 ft | 415 kts | 191° |
| 2026-05-04 17:29 | 38.24546 | -3.61563 | 26964 ft | 415 kts | 191° |
| 2026-05-04 17:30 | 38.15927 | -3.62398 | 26959 ft | 415 kts | 191° |
| 2026-05-04 17:31 | 38.10107 | -3.62514 | 26752 ft | 418 kts | 187° |
| 2026-05-04 17:31 | 38.01438 | -3.62578 | 25998 ft | 413 kts | 187° |
| 2026-05-04 17:32 | 37.95705 | -3.62629 | 25505 ft | 410 kts | 187° |
| 2026-05-04 17:33 | 37.88120 | -3.62694 | 24846 ft | 406 kts | 187° |
| 2026-05-04 17:33 | 37.85287 | -3.62719 | 24273 ft | 408 kts | 187° |
| 2026-05-04 17:34 | 37.76804 | -3.62790 | 22424 ft | 400 kts | 187° |
| 2026-05-04 17:34 | 37.74047 | -3.62811 | 21827 ft | 394 kts | 187° |
| 2026-05-04 17:35 | 37.65963 | -3.62896 | 19953 ft | 384 kts | 187° |
| 2026-05-04 17:35 | 37.60677 | -3.62935 | 18894 ft | 373 kts | 186° |
| 2026-05-04 17:35 | 37.58074 | -3.62952 | 18177 ft | 373 kts | 186° |
| 2026-05-04 17:36 | 37.55453 | -3.62972 | 17132 ft | 380 kts | 186° |
| 2026-05-04 17:36 | 37.52800 | -3.62997 | 16275 ft | 383 kts | 186° |
| 2026-05-04 17:36 | 37.50144 | -3.63016 | 15585 ft | 380 kts | 186° |
| 2026-05-04 17:36 | 37.47481 | -3.63032 | 14928 ft | 376 kts | 185° |
| 2026-05-04 17:37 | 37.44865 | -3.63050 | 14262 ft | 374 kts | 185° |
| 2026-05-04 17:37 | 37.42269 | -3.63107 | 13612 ft | 369 kts | 190° |
| 2026-05-04 17:37 | 37.39841 | -3.63881 | 12929 ft | 355 kts | 208° |
| 2026-05-04 17:37 | 37.37830 | -3.65563 | 12198 ft | 346 kts | 227° |
| 2026-05-04 17:38 | 37.36347 | -3.67923 | 11592 ft | 340 kts | 237° |
| 2026-05-04 17:38 | 37.34986 | -3.70346 | 11011 ft | 338 kts | 237° |
| 2026-05-04 17:38 | 37.33628 | -3.72744 | 10477 ft | 334 kts | 236° |
| 2026-05-04 17:38 | 37.32301 | -3.75058 | 10312 ft | 319 kts | 236° |
| 2026-05-04 17:39 | 37.29815 | -3.79345 | 10064 ft | 291 kts | 236° |
| 2026-05-04 17:39 | 37.28648 | -3.81354 | 9902 ft | 279 kts | 236° |
| 2026-05-04 17:39 | 37.27510 | -3.83314 | 9468 ft | 277 kts | 236° |
| 2026-05-04 17:40 | 37.26373 | -3.85271 | 9050 ft | 276 kts | 236° |
| 2026-05-04 17:40 | 37.25240 | -3.87220 | 8639 ft | 275 kts | 236° |
| 2026-05-04 17:40 | 37.24113 | -3.89155 | 8197 ft | 274 kts | 236° |
| 2026-05-04 17:40 | 37.22994 | -3.91072 | 7866 ft | 271 kts | 236° |
| 2026-05-04 17:41 | 37.21882 | -3.92982 | 7482 ft | 270 kts | 236° |
| 2026-05-04 17:41 | 37.20783 | -3.94868 | 7140 ft | 268 kts | 236° |
| 2026-05-04 17:41 | 37.19692 | -3.96751 | 7033 ft | 257 kts | 239° |
| 2026-05-04 17:41 | 37.19118 | -3.98818 | 6945 ft | 249 kts | 268° |
| 2026-05-04 17:42 | 37.19432 | -4.00886 | 6847 ft | 240 kts | 296° |
| 2026-05-04 17:42 | 37.20398 | -4.02555 | 6677 ft | 234 kts | 307° |
| 2026-05-04 17:42 | 37.21411 | -4.04118 | 6518 ft | 226 kts | 307° |
| 2026-05-04 17:42 | 37.22368 | -4.05609 | 6514 ft | 212 kts | 306° |
| 2026-05-04 17:43 | 37.23251 | -4.07001 | 6487 ft | 195 kts | 306° |
| 2026-05-04 17:43 | 37.24059 | -4.08288 | 6498 ft | 179 kts | 304° |
| 2026-05-04 17:43 | 37.24791 | -4.09486 | 6518 ft | 175 kts | 298° |
| 2026-05-04 17:43 | 37.25073 | -4.10996 | 6508 ft | 187 kts | 264° |
| 2026-05-04 17:44 | 37.24494 | -4.12442 | 6498 ft | 190 kts | 226° |
| 2026-05-04 17:44 | 37.23288 | -4.13120 | 6499 ft | 199 kts | 189° |
| 2026-05-04 17:44 | 37.21916 | -4.12713 | 6504 ft | 212 kts | 153° |
| 2026-05-04 17:44 | 37.20753 | -4.11576 | 6507 ft | 211 kts | 138° |
| 2026-05-04 17:45 | 37.19811 | -4.10183 | 6503 ft | 213 kts | 125° |
| 2026-05-04 17:45 | 37.19139 | -4.08508 | 6514 ft | 218 kts | 109° |
| 2026-05-04 17:45 | 37.18795 | -4.06665 | 6512 ft | 216 kts | 97° |
| 2026-05-04 17:45 | 37.18688 | -4.04790 | 6514 ft | 213 kts | 90° |
| 2026-05-04 17:46 | 37.18684 | -4.02953 | 6510 ft | 214 kts | 88° |
| 2026-05-04 17:46 | 37.18699 | -4.01056 | 6517 ft | 219 kts | 88° |
| 2026-05-04 17:46 | 37.18712 | -3.99149 | 6522 ft | 212 kts | 89° |
| 2026-05-04 17:46 | 37.18724 | -3.97367 | 6521 ft | 195 kts | 88° |
| 2026-05-04 17:47 | 37.18736 | -3.95701 | 6487 ft | 192 kts | 87° |
| 2026-05-04 17:47 | 37.18747 | -3.93996 | 6116 ft | 201 kts | 87° |
| 2026-05-04 17:47 | 37.18712 | -3.92257 | 5691 ft | 195 kts | 89° |
| 2026-05-04 17:47 | 37.18715 | -3.90580 | 5295 ft | 187 kts | 86° |
| 2026-05-04 17:48 | 37.18756 | -3.88984 | 4813 ft | 180 kts | 83° |
| 2026-05-04 17:48 | 37.18790 | -3.87429 | 4362 ft | 174 kts | 89° |
| 2026-05-04 17:48 | 37.18802 | -3.86427 | 3998 ft | 175 kts | 92° |
| 2026-05-04 17:48 | 37.18843 | -3.84489 | 3054 ft | 187 kts | 86° |
| 2026-05-04 17:49 | 37.18841 | -3.82883 | 2639 ft | 176 kts | 82° |
| 2026-05-04 17:49 | 37.18816 | -3.81427 | 2357 ft | 163 kts | 89° |
| 2026-05-04 17:49 | 37.18839 | -3.80000 | 1998 ft | 161 kts | 86° |
| 2026-05-04 17:49 | 37.18861 | -3.78676 | 1857 ft | 130 kts | 90° |
| 2026-05-04 17:50 | 37.18868 | -3.78003 | 1857 ft | 46 kts | 89° |
| 2026-05-04 17:50 | 37.18870 | -3.77605 | 1859 ft | 37 kts | 89° |
| 2026-05-04 17:50 | 37.18872 | -3.77328 | 1861 ft | 24 kts | 91° |
| 2026-05-04 17:50 | 37.18844 | -3.77156 | 1863 ft | 18 kts | 105° |
| 2026-05-04 17:51 | 37.18796 | -3.77001 | 1863 ft | 21 kts | 119° |
| 2026-05-04 17:51 | 37.18717 | -3.76998 | 1864 ft | 14 kts | 252° |
| 2026-05-04 17:51 | 37.18711 | -3.77129 | 1863 ft | 16 kts | 270° |
| 2026-05-04 17:51 | 37.18710 | -3.77279 | 1862 ft | 18 kts | 269° |
| 2026-05-04 17:52 | 37.18707 | -3.77448 | 1862 ft | 18 kts | 259° |
| 2026-05-04 17:52 | 37.18662 | -3.77512 | 1861 ft | 10 kts | 261° |
| 2026-05-04 17:52 | 37.18658 | -3.77595 | 1861 ft | 0 kts | 270° |